sensor_id;sensor_type;location;lat;lon;timestamp;pressure;altitude;pressure_sealevel;temperature
10869;BMP180;62667;48.698;8.762;2023-08-07T00:02:03;95884.00;;;10.50
10869;BMP180;62667;48.698;8.762;2023-08-07T00:04:31;95884.00;;;10.50
10869;BMP180;62667;48.698;8.762;2023-08-07T00:06:58;95877.00;;;10.40
10869;BMP180;62667;48.698;8.762;2023-08-07T00:09:27;95909.00;;;10.40
10869;BMP180;62667;48.698;8.762;2023-08-07T00:11:54;95885.00;;;10.50
10869;BMP180;62667;48.698;8.762;2023-08-07T00:14:21;95880.00;;;10.50
10869;BMP180;62667;48.698;8.762;2023-08-07T00:16:49;95882.00;;;10.40
10869;BMP180;62667;48.698;8.762;2023-08-07T00:19:16;95883.00;;;10.50
10869;BMP180;62667;48.698;8.762;2023-08-07T00:21:43;95877.00;;;10.50
10869;BMP180;62667;48.698;8.762;2023-08-07T00:24:11;95877.00;;;10.60
10869;BMP180;62667;48.698;8.762;2023-08-07T00:26:39;95874.00;;;10.50
10869;BMP180;62667;48.698;8.762;2023-08-07T00:29:07;95889.00;;;10.40
10869;BMP180;62667;48.698;8.762;2023-08-07T00:31:34;95893.00;;;10.30
10869;BMP180;62667;48.698;8.762;2023-08-07T00:34:01;95878.00;;;10.40
10869;BMP180;62667;48.698;8.762;2023-08-07T00:36:30;95892.00;;;10.40
10869;BMP180;62667;48.698;8.762;2023-08-07T00:39:00;95892.00;;;10.40
10869;BMP180;62667;48.698;8.762;2023-08-07T00:41:29;95901.00;;;10.40
10869;BMP180;62667;48.698;8.762;2023-08-07T00:43:58;95903.00;;;10.40
10869;BMP180;62667;48.698;8.762;2023-08-07T00:46:26;95908.00;;;10.40
10869;BMP180;62667;48.698;8.762;2023-08-07T00:48:53;95908.00;;;10.40
10869;BMP180;62667;48.698;8.762;2023-08-07T00:51:21;95908.00;;;10.50
10869;BMP180;62667;48.698;8.762;2023-08-07T00:53:50;95901.00;;;10.70
10869;BMP180;62667;48.698;8.762;2023-08-07T00:56:17;95911.00;;;10.60
10869;BMP180;62667;48.698;8.762;2023-08-07T00:58:45;95907.00;;;10.60
10869;BMP180;62667;48.698;8.762;2023-08-07T01:01:14;95918.00;;;10.70
10869;BMP180;62667;48.698;8.762;2023-08-07T01:03:41;95905.00;;;10.60
10869;BMP180;62667;48.698;8.762;2023-08-07T01:06:09;95907.00;;;10.70
10869;BMP180;62667;48.698;8.762;2023-08-07T01:08:36;95916.00;;;10.70
10869;BMP180;62667;48.698;8.762;2023-08-07T01:11:14;95908.00;;;10.70
10869;BMP180;62667;48.698;8.762;2023-08-07T01:13:48;95918.00;;;10.70
10869;BMP180;62667;48.698;8.762;2023-08-07T01:16:25;95908.00;;;10.70
10869;BMP180;62667;48.698;8.762;2023-08-07T01:18:54;95920.00;;;10.60
10869;BMP180;62667;48.698;8.762;2023-08-07T01:21:23;95921.00;;;10.70
10869;BMP180;62667;48.698;8.762;2023-08-07T01:23:51;95916.00;;;10.70
10869;BMP180;62667;48.698;8.762;2023-08-07T01:26:19;95914.00;;;10.60
10869;BMP180;62667;48.698;8.762;2023-08-07T01:28:54;95922.00;;;10.60
10869;BMP180;62667;48.698;8.762;2023-08-07T01:31:25;95916.00;;;10.70
10869;BMP180;62667;48.698;8.762;2023-08-07T01:33:58;95911.00;;;10.60
10869;BMP180;62667;48.698;8.762;2023-08-07T01:36:28;95913.00;;;10.60
10869;BMP180;62667;48.698;8.762;2023-08-07T01:38:58;95908.00;;;10.50
10869;BMP180;62667;48.698;8.762;2023-08-07T01:41:26;95914.00;;;10.60
10869;BMP180;62667;48.698;8.762;2023-08-07T01:43:54;95916.00;;;10.70
10869;BMP180;62667;48.698;8.762;2023-08-07T01:46:22;95915.00;;;10.70
10869;BMP180;62667;48.698;8.762;2023-08-07T01:48:49;95921.00;;;10.70
10869;BMP180;62667;48.698;8.762;2023-08-07T01:51:17;95920.00;;;10.60
10869;BMP180;62667;48.698;8.762;2023-08-07T01:53:44;95923.00;;;10.70
10869;BMP180;62667;48.698;8.762;2023-08-07T01:56:15;95922.00;;;10.60
10869;BMP180;62667;48.698;8.762;2023-08-07T01:58:42;95933.00;;;10.70
10869;BMP180;62667;48.698;8.762;2023-08-07T02:01:10;95931.00;;;10.80
10869;BMP180;62667;48.698;8.762;2023-08-07T02:03:38;95930.00;;;10.80
10869;BMP180;62667;48.698;8.762;2023-08-07T02:06:05;95934.00;;;10.70
10869;BMP180;62667;48.698;8.762;2023-08-07T02:08:33;95936.00;;;10.70
10869;BMP180;62667;48.698;8.762;2023-08-07T02:11:00;95927.00;;;10.60
10869;BMP180;62667;48.698;8.762;2023-08-07T02:13:30;95937.00;;;10.50
10869;BMP180;62667;48.698;8.762;2023-08-07T02:15:57;95940.00;;;10.60
10869;BMP180;62667;48.698;8.762;2023-08-07T02:18:25;95941.00;;;10.60
10869;BMP180;62667;48.698;8.762;2023-08-07T02:20:52;95942.00;;;10.70
10869;BMP180;62667;48.698;8.762;2023-08-07T02:23:19;95945.00;;;10.60
10869;BMP180;62667;48.698;8.762;2023-08-07T02:25:48;95944.00;;;10.70
10869;BMP180;62667;48.698;8.762;2023-08-07T02:28:15;95920.00;;;10.60
10869;BMP180;62667;48.698;8.762;2023-08-07T02:30:45;95951.00;;;10.50
10869;BMP180;62667;48.698;8.762;2023-08-07T02:33:14;95948.00;;;10.60
10869;BMP180;62667;48.698;8.762;2023-08-07T02:35:42;95941.00;;;10.60
10869;BMP180;62667;48.698;8.762;2023-08-07T02:38:09;95932.00;;;10.50
10869;BMP180;62667;48.698;8.762;2023-08-07T02:40:37;95951.00;;;10.60
10869;BMP180;62667;48.698;8.762;2023-08-07T02:43:04;95939.00;;;10.50
10869;BMP180;62667;48.698;8.762;2023-08-07T02:45:33;95947.00;;;10.40
10869;BMP180;62667;48.698;8.762;2023-08-07T02:48:02;95941.00;;;10.40
10869;BMP180;62667;48.698;8.762;2023-08-07T02:50:30;95936.00;;;10.50
10869;BMP180;62667;48.698;8.762;2023-08-07T02:52:58;95934.00;;;10.40
10869;BMP180;62667;48.698;8.762;2023-08-07T02:55:26;95940.00;;;10.40
10869;BMP180;62667;48.698;8.762;2023-08-07T02:57:53;95934.00;;;10.50
10869;BMP180;62667;48.698;8.762;2023-08-07T03:00:20;95947.00;;;10.40
10869;BMP180;62667;48.698;8.762;2023-08-07T03:02:48;95943.00;;;10.30
10869;BMP180;62667;48.698;8.762;2023-08-07T03:05:16;95947.00;;;10.30
10869;BMP180;62667;48.698;8.762;2023-08-07T03:07:44;95936.00;;;10.30
10869;BMP180;62667;48.698;8.762;2023-08-07T03:10:11;95936.00;;;10.30
10869;BMP180;62667;48.698;8.762;2023-08-07T03:12:39;95927.00;;;10.30
10869;BMP180;62667;48.698;8.762;2023-08-07T03:15:07;95935.00;;;10.30
10869;BMP180;62667;48.698;8.762;2023-08-07T03:17:34;95954.00;;;10.30
10869;BMP180;62667;48.698;8.762;2023-08-07T03:20:02;95934.00;;;10.20
10869;BMP180;62667;48.698;8.762;2023-08-07T03:22:32;95941.00;;;10.30
10869;BMP180;62667;48.698;8.762;2023-08-07T03:24:59;95932.00;;;10.30
10869;BMP180;62667;48.698;8.762;2023-08-07T03:27:26;95937.00;;;10.30
10869;BMP180;62667;48.698;8.762;2023-08-07T03:29:54;95940.00;;;10.30
10869;BMP180;62667;48.698;8.762;2023-08-07T03:32:22;95942.00;;;10.30
10869;BMP180;62667;48.698;8.762;2023-08-07T03:34:50;95942.00;;;10.40
10869;BMP180;62667;48.698;8.762;2023-08-07T03:37:17;95945.00;;;10.30
10869;BMP180;62667;48.698;8.762;2023-08-07T03:39:46;95951.00;;;10.30
10869;BMP180;62667;48.698;8.762;2023-08-07T03:42:14;95940.00;;;10.30
10869;BMP180;62667;48.698;8.762;2023-08-07T03:44:41;95936.00;;;10.40
10869;BMP180;62667;48.698;8.762;2023-08-07T03:47:09;95950.00;;;10.40
10869;BMP180;62667;48.698;8.762;2023-08-07T03:49:36;95952.00;;;10.40
10869;BMP180;62667;48.698;8.762;2023-08-07T03:52:04;95950.00;;;10.40
10869;BMP180;62667;48.698;8.762;2023-08-07T03:54:32;95952.00;;;10.40
10869;BMP180;62667;48.698;8.762;2023-08-07T03:57:00;95949.00;;;10.40
10869;BMP180;62667;48.698;8.762;2023-08-07T03:59:28;95949.00;;;10.40
10869;BMP180;62667;48.698;8.762;2023-08-07T04:01:56;95951.00;;;10.40
10869;BMP180;62667;48.698;8.762;2023-08-07T04:04:23;95956.00;;;10.50
10869;BMP180;62667;48.698;8.762;2023-08-07T04:06:50;95947.00;;;10.40
10869;BMP180;62667;48.698;8.762;2023-08-07T04:09:18;95950.00;;;10.50
10869;BMP180;62667;48.698;8.762;2023-08-07T04:11:45;95949.00;;;10.60
10869;BMP180;62667;48.698;8.762;2023-08-07T04:14:14;95951.00;;;10.50
10869;BMP180;62667;48.698;8.762;2023-08-07T04:16:42;95948.00;;;10.50
10869;BMP180;62667;48.698;8.762;2023-08-07T04:19:09;95955.00;;;10.50
10869;BMP180;62667;48.698;8.762;2023-08-07T04:21:37;95948.00;;;10.50
10869;BMP180;62667;48.698;8.762;2023-08-07T04:24:04;95961.00;;;10.40
10869;BMP180;62667;48.698;8.762;2023-08-07T04:26:36;95970.00;;;10.50
10869;BMP180;62667;48.698;8.762;2023-08-07T04:29:04;95961.00;;;10.50
10869;BMP180;62667;48.698;8.762;2023-08-07T04:31:32;95967.00;;;10.60
10869;BMP180;62667;48.698;8.762;2023-08-07T04:34:00;95943.00;;;10.60
10869;BMP180;62667;48.698;8.762;2023-08-07T04:36:27;95974.00;;;10.60
10869;BMP180;62667;48.698;8.762;2023-08-07T04:38:55;95973.00;;;10.70
10869;BMP180;62667;48.698;8.762;2023-08-07T04:41:22;95971.00;;;10.70
10869;BMP180;62667;48.698;8.762;2023-08-07T04:43:50;95972.00;;;10.60
10869;BMP180;62667;48.698;8.762;2023-08-07T04:46:17;95974.00;;;10.50
10869;BMP180;62667;48.698;8.762;2023-08-07T04:48:47;95985.00;;;10.70
10869;BMP180;62667;48.698;8.762;2023-08-07T04:51:14;95980.00;;;10.80
10869;BMP180;62667;48.698;8.762;2023-08-07T04:53:42;95983.00;;;10.70
10869;BMP180;62667;48.698;8.762;2023-08-07T04:56:10;95977.00;;;10.70
10869;BMP180;62667;48.698;8.762;2023-08-07T04:58:37;95980.00;;;10.90
10869;BMP180;62667;48.698;8.762;2023-08-07T05:01:05;95983.00;;;11.00
10869;BMP180;62667;48.698;8.762;2023-08-07T05:03:32;95967.00;;;10.90
10869;BMP180;62667;48.698;8.762;2023-08-07T05:06:01;95975.00;;;11.00
10869;BMP180;62667;48.698;8.762;2023-08-07T05:08:29;95978.00;;;11.10
10869;BMP180;62667;48.698;8.762;2023-08-07T05:10:56;95980.00;;;11.10
10869;BMP180;62667;48.698;8.762;2023-08-07T05:13:23;95977.00;;;11.10
10869;BMP180;62667;48.698;8.762;2023-08-07T05:15:51;95979.00;;;11.00
10869;BMP180;62667;48.698;8.762;2023-08-07T05:18:18;95971.00;;;11.10
10869;BMP180;62667;48.698;8.762;2023-08-07T05:20:46;95979.00;;;11.20
10869;BMP180;62667;48.698;8.762;2023-08-07T05:23:14;95979.00;;;11.40
10869;BMP180;62667;48.698;8.762;2023-08-07T05:25:44;95989.00;;;11.20
10869;BMP180;62667;48.698;8.762;2023-08-07T05:28:11;95979.00;;;11.20
10869;BMP180;62667;48.698;8.762;2023-08-07T05:30:39;95994.00;;;11.20
10869;BMP180;62667;48.698;8.762;2023-08-07T05:33:06;95997.00;;;11.10
10869;BMP180;62667;48.698;8.762;2023-08-07T05:35:34;95999.00;;;11.20
10869;BMP180;62667;48.698;8.762;2023-08-07T05:38:01;96001.00;;;11.20
10869;BMP180;62667;48.698;8.762;2023-08-07T05:40:30;95992.00;;;11.20
10869;BMP180;62667;48.698;8.762;2023-08-07T05:42:58;95990.00;;;11.20
10869;BMP180;62667;48.698;8.762;2023-08-07T05:45:25;95994.00;;;11.10
10869;BMP180;62667;48.698;8.762;2023-08-07T05:47:52;95991.00;;;11.20
10869;BMP180;62667;48.698;8.762;2023-08-07T05:50:20;95993.00;;;11.30
10869;BMP180;62667;48.698;8.762;2023-08-07T05:52:47;95989.00;;;11.30
10869;BMP180;62667;48.698;8.762;2023-08-07T05:55:15;95992.00;;;11.30
10869;BMP180;62667;48.698;8.762;2023-08-07T05:57:43;96010.00;;;11.40
10869;BMP180;62667;48.698;8.762;2023-08-07T06:00:11;96014.00;;;11.50
10869;BMP180;62667;48.698;8.762;2023-08-07T06:02:42;96016.00;;;11.60
10869;BMP180;62667;48.698;8.762;2023-08-07T06:05:11;96005.00;;;11.50
10869;BMP180;62667;48.698;8.762;2023-08-07T06:07:39;96014.00;;;11.50
10869;BMP180;62667;48.698;8.762;2023-08-07T06:10:07;96015.00;;;11.60
10869;BMP180;62667;48.698;8.762;2023-08-07T06:12:35;96020.00;;;11.40
10869;BMP180;62667;48.698;8.762;2023-08-07T06:15:05;96027.00;;;11.50
10869;BMP180;62667;48.698;8.762;2023-08-07T06:17:32;96026.00;;;11.50
10869;BMP180;62667;48.698;8.762;2023-08-07T06:19:59;96014.00;;;11.50
10869;BMP180;62667;48.698;8.762;2023-08-07T06:22:27;96021.00;;;11.50
10869;BMP180;62667;48.698;8.762;2023-08-07T06:24:54;96015.00;;;11.60
10869;BMP180;62667;48.698;8.762;2023-08-07T06:27:22;96013.00;;;11.70
10869;BMP180;62667;48.698;8.762;2023-08-07T06:29:49;96015.00;;;11.90
10869;BMP180;62667;48.698;8.762;2023-08-07T06:32:18;96021.00;;;11.90
10869;BMP180;62667;48.698;8.762;2023-08-07T06:34:46;96028.00;;;11.80
10869;BMP180;62667;48.698;8.762;2023-08-07T06:37:14;96033.00;;;11.70
10869;BMP180;62667;48.698;8.762;2023-08-07T06:39:41;96036.00;;;11.90
10869;BMP180;62667;48.698;8.762;2023-08-07T06:42:09;96038.00;;;11.80
10869;BMP180;62667;48.698;8.762;2023-08-07T06:44:36;96048.00;;;11.90
10869;BMP180;62667;48.698;8.762;2023-08-07T06:47:04;96051.00;;;12.10
10869;BMP180;62667;48.698;8.762;2023-08-07T06:49:32;96054.00;;;12.20
10869;BMP180;62667;48.698;8.762;2023-08-07T06:52:00;96061.00;;;12.00
10869;BMP180;62667;48.698;8.762;2023-08-07T06:54:28;96057.00;;;12.30
10869;BMP180;62667;48.698;8.762;2023-08-07T06:56:55;96051.00;;;12.30
10869;BMP180;62667;48.698;8.762;2023-08-07T06:59:23;96052.00;;;12.30
10869;BMP180;62667;48.698;8.762;2023-08-07T07:01:51;96046.00;;;12.50
10869;BMP180;62667;48.698;8.762;2023-08-07T07:04:18;96048.00;;;12.50
10869;BMP180;62667;48.698;8.762;2023-08-07T07:06:47;96048.00;;;12.40
10869;BMP180;62667;48.698;8.762;2023-08-07T07:09:14;96044.00;;;12.40
10869;BMP180;62667;48.698;8.762;2023-08-07T07:11:43;96036.00;;;12.40
10869;BMP180;62667;48.698;8.762;2023-08-07T07:14:10;96039.00;;;12.50
10869;BMP180;62667;48.698;8.762;2023-08-07T07:16:38;96063.00;;;12.40
10869;BMP180;62667;48.698;8.762;2023-08-07T07:19:05;96043.00;;;12.40
10869;BMP180;62667;48.698;8.762;2023-08-07T07:21:34;96059.00;;;12.40
10869;BMP180;62667;48.698;8.762;2023-08-07T07:24:04;96057.00;;;12.70
10869;BMP180;62667;48.698;8.762;2023-08-07T07:26:32;96046.00;;;12.70
10869;BMP180;62667;48.698;8.762;2023-08-07T07:28:59;96052.00;;;12.70
10869;BMP180;62667;48.698;8.762;2023-08-07T07:31:27;96071.00;;;12.70
10869;BMP180;62667;48.698;8.762;2023-08-07T07:33:54;96054.00;;;12.90
10869;BMP180;62667;48.698;8.762;2023-08-07T07:36:22;96077.00;;;13.10
10869;BMP180;62667;48.698;8.762;2023-08-07T07:38:49;96089.00;;;13.10
10869;BMP180;62667;48.698;8.762;2023-08-07T07:41:18;96071.00;;;13.00
10869;BMP180;62667;48.698;8.762;2023-08-07T07:43:46;96065.00;;;13.10
10869;BMP180;62667;48.698;8.762;2023-08-07T07:46:13;96082.00;;;12.90
10869;BMP180;62667;48.698;8.762;2023-08-07T07:48:41;96076.00;;;13.20
10869;BMP180;62667;48.698;8.762;2023-08-07T07:51:08;96076.00;;;13.20
10869;BMP180;62667;48.698;8.762;2023-08-07T07:53:36;96078.00;;;13.10
10869;BMP180;62667;48.698;8.762;2023-08-07T07:56:04;96053.00;;;13.10
10869;BMP180;62667;48.698;8.762;2023-08-07T07:58:33;96076.00;;;13.40
10869;BMP180;62667;48.698;8.762;2023-08-07T08:01:00;96089.00;;;13.30
10869;BMP180;62667;48.698;8.762;2023-08-07T08:03:28;96098.00;;;13.30
10869;BMP180;62667;48.698;8.762;2023-08-07T08:05:55;96084.00;;;13.40
10869;BMP180;62667;48.698;8.762;2023-08-07T08:08:23;96076.00;;;13.10
10869;BMP180;62667;48.698;8.762;2023-08-07T08:10:50;96091.00;;;13.20
10869;BMP180;62667;48.698;8.762;2023-08-07T08:13:18;96094.00;;;13.10
10869;BMP180;62667;48.698;8.762;2023-08-07T08:15:47;96133.00;;;13.00
10869;BMP180;62667;48.698;8.762;2023-08-07T08:18:14;96117.00;;;12.80
10869;BMP180;62667;48.698;8.762;2023-08-07T08:20:42;96107.00;;;12.90
10869;BMP180;62667;48.698;8.762;2023-08-07T08:23:09;96100.00;;;13.00
10869;BMP180;62667;48.698;8.762;2023-08-07T08:25:36;96116.00;;;13.00
10869;BMP180;62667;48.698;8.762;2023-08-07T08:28:04;96117.00;;;13.30
10869;BMP180;62667;48.698;8.762;2023-08-07T08:30:32;96116.00;;;13.40
10869;BMP180;62667;48.698;8.762;2023-08-07T08:33:00;96111.00;;;13.50
10869;BMP180;62667;48.698;8.762;2023-08-07T08:35:28;96090.00;;;13.60
10869;BMP180;62667;48.698;8.762;2023-08-07T08:37:56;96096.00;;;13.50
10869;BMP180;62667;48.698;8.762;2023-08-07T08:40:24;96100.00;;;13.40
10869;BMP180;62667;48.698;8.762;2023-08-07T08:42:52;96116.00;;;13.50
10869;BMP180;62667;48.698;8.762;2023-08-07T08:45:26;96103.00;;;13.60
10869;BMP180;62667;48.698;8.762;2023-08-07T08:47:58;96112.00;;;13.50
10869;BMP180;62667;48.698;8.762;2023-08-07T08:50:28;96119.00;;;13.40
10869;BMP180;62667;48.698;8.762;2023-08-07T08:52:57;96101.00;;;13.70
10869;BMP180;62667;48.698;8.762;2023-08-07T08:55:25;96121.00;;;13.90
10869;BMP180;62667;48.698;8.762;2023-08-07T08:57:54;96127.00;;;13.90
10869;BMP180;62667;48.698;8.762;2023-08-07T09:00:21;96113.00;;;13.80
10869;BMP180;62667;48.698;8.762;2023-08-07T09:02:52;96136.00;;;13.90
10869;BMP180;62667;48.698;8.762;2023-08-07T09:05:21;96125.00;;;14.00
10869;BMP180;62667;48.698;8.762;2023-08-07T09:07:50;96138.00;;;13.90
10869;BMP180;62667;48.698;8.762;2023-08-07T09:10:17;96110.00;;;14.00
10869;BMP180;62667;48.698;8.762;2023-08-07T09:12:49;96097.00;;;14.30
10869;BMP180;62667;48.698;8.762;2023-08-07T09:15:20;96129.00;;;14.10
10869;BMP180;62667;48.698;8.762;2023-08-07T09:17:50;96108.00;;;13.90
10869;BMP180;62667;48.698;8.762;2023-08-07T09:20:18;96119.00;;;14.00
10869;BMP180;62667;48.698;8.762;2023-08-07T09:22:46;96109.00;;;13.80
10869;BMP180;62667;48.698;8.762;2023-08-07T09:25:15;96116.00;;;13.90
10869;BMP180;62667;48.698;8.762;2023-08-07T09:27:53;96118.00;;;13.80
10869;BMP180;62667;48.698;8.762;2023-08-07T09:30:21;96138.00;;;13.80
10869;BMP180;62667;48.698;8.762;2023-08-07T09:32:53;96135.00;;;13.90
10869;BMP180;62667;48.698;8.762;2023-08-07T09:35:21;96127.00;;;13.90
10869;BMP180;62667;48.698;8.762;2023-08-07T09:37:49;96127.00;;;14.10
10869;BMP180;62667;48.698;8.762;2023-08-07T09:40:19;96136.00;;;14.00
10869;BMP180;62667;48.698;8.762;2023-08-07T09:42:50;96144.00;;;14.20
10869;BMP180;62667;48.698;8.762;2023-08-07T09:45:20;96143.00;;;14.00
10869;BMP180;62667;48.698;8.762;2023-08-07T09:47:56;96146.00;;;14.30
10869;BMP180;62667;48.698;8.762;2023-08-07T09:50:24;96148.00;;;14.50
10869;BMP180;62667;48.698;8.762;2023-08-07T09:52:53;96127.00;;;15.00
10869;BMP180;62667;48.698;8.762;2023-08-07T09:55:22;96136.00;;;15.10
10869;BMP180;62667;48.698;8.762;2023-08-07T09:57:50;96150.00;;;14.90
10869;BMP180;62667;48.698;8.762;2023-08-07T10:00:18;96168.00;;;14.80
10869;BMP180;62667;48.698;8.762;2023-08-07T10:02:47;96154.00;;;14.10
10869;BMP180;62667;48.698;8.762;2023-08-07T10:05:15;96141.00;;;14.70
10869;BMP180;62667;48.698;8.762;2023-08-07T10:07:43;96147.00;;;14.70
10869;BMP180;62667;48.698;8.762;2023-08-07T10:10:11;96155.00;;;14.60
10869;BMP180;62667;48.698;8.762;2023-08-07T10:12:39;96145.00;;;15.00
10869;BMP180;62667;48.698;8.762;2023-08-07T10:15:12;96139.00;;;15.10
10869;BMP180;62667;48.698;8.762;2023-08-07T10:17:40;96134.00;;;15.20
10869;BMP180;62667;48.698;8.762;2023-08-07T10:20:11;96127.00;;;15.40
10869;BMP180;62667;48.698;8.762;2023-08-07T10:22:39;96146.00;;;15.40
10869;BMP180;62667;48.698;8.762;2023-08-07T10:25:08;96144.00;;;15.10
10869;BMP180;62667;48.698;8.762;2023-08-07T10:27:40;96161.00;;;14.90
10869;BMP180;62667;48.698;8.762;2023-08-07T10:30:11;96155.00;;;14.70
10869;BMP180;62667;48.698;8.762;2023-08-07T10:32:39;96156.00;;;14.70
10869;BMP180;62667;48.698;8.762;2023-08-07T10:35:08;96160.00;;;15.20
10869;BMP180;62667;48.698;8.762;2023-08-07T10:37:40;96164.00;;;15.40
10869;BMP180;62667;48.698;8.762;2023-08-07T10:40:08;96170.00;;;15.50
10869;BMP180;62667;48.698;8.762;2023-08-07T10:42:56;96158.00;;;15.40
10869;BMP180;62667;48.698;8.762;2023-08-07T10:45:25;96183.00;;;15.50
10869;BMP180;62667;48.698;8.762;2023-08-07T10:48:03;96166.00;;;14.80
10869;BMP180;62667;48.698;8.762;2023-08-07T10:50:33;96165.00;;;14.80
10869;BMP180;62667;48.698;8.762;2023-08-07T10:53:01;96153.00;;;14.80
10869;BMP180;62667;48.698;8.762;2023-08-07T10:55:42;96166.00;;;15.20
10869;BMP180;62667;48.698;8.762;2023-08-07T10:58:23;96171.00;;;15.20
10869;BMP180;62667;48.698;8.762;2023-08-07T11:00:52;96159.00;;;15.10
10869;BMP180;62667;48.698;8.762;2023-08-07T11:03:26;96171.00;;;15.80
10869;BMP180;62667;48.698;8.762;2023-08-07T11:05:57;96173.00;;;16.00
10869;BMP180;62667;48.698;8.762;2023-08-07T11:08:24;96194.00;;;15.80
10869;BMP180;62667;48.698;8.762;2023-08-07T11:10:53;96180.00;;;15.20
10869;BMP180;62667;48.698;8.762;2023-08-07T11:13:22;96166.00;;;15.20
10869;BMP180;62667;48.698;8.762;2023-08-07T11:15:50;96166.00;;;15.60
10869;BMP180;62667;48.698;8.762;2023-08-07T11:18:18;96175.00;;;15.50
10869;BMP180;62667;48.698;8.762;2023-08-07T11:20:45;96158.00;;;15.30
10869;BMP180;62667;48.698;8.762;2023-08-07T11:23:14;96172.00;;;15.80
10869;BMP180;62667;48.698;8.762;2023-08-07T11:25:42;96180.00;;;15.20
10869;BMP180;62667;48.698;8.762;2023-08-07T11:28:09;96177.00;;;15.10
10869;BMP180;62667;48.698;8.762;2023-08-07T11:30:38;96179.00;;;14.80
10869;BMP180;62667;48.698;8.762;2023-08-07T11:33:06;96186.00;;;14.80
10869;BMP180;62667;48.698;8.762;2023-08-07T11:35:40;96187.00;;;14.90
10869;BMP180;62667;48.698;8.762;2023-08-07T11:38:07;96189.00;;;14.80
10869;BMP180;62667;48.698;8.762;2023-08-07T11:40:35;96193.00;;;14.60
10869;BMP180;62667;48.698;8.762;2023-08-07T11:43:03;96194.00;;;14.40
10869;BMP180;62667;48.698;8.762;2023-08-07T11:45:30;96204.00;;;14.40
10869;BMP180;62667;48.698;8.762;2023-08-07T11:47:59;96180.00;;;14.50
10869;BMP180;62667;48.698;8.762;2023-08-07T11:50:28;96188.00;;;14.50
10869;BMP180;62667;48.698;8.762;2023-08-07T11:52:55;96207.00;;;14.40
10869;BMP180;62667;48.698;8.762;2023-08-07T11:55:28;96191.00;;;14.50
10869;BMP180;62667;48.698;8.762;2023-08-07T11:57:56;96207.00;;;14.40
10869;BMP180;62667;48.698;8.762;2023-08-07T12:00:25;96202.00;;;14.50
10869;BMP180;62667;48.698;8.762;2023-08-07T12:02:55;96199.00;;;14.50
10869;BMP180;62667;48.698;8.762;2023-08-07T12:05:24;96197.00;;;14.80
10869;BMP180;62667;48.698;8.762;2023-08-07T12:07:52;96158.00;;;15.00
10869;BMP180;62667;48.698;8.762;2023-08-07T12:10:19;96195.00;;;15.00
10869;BMP180;62667;48.698;8.762;2023-08-07T12:12:46;96189.00;;;15.00
10869;BMP180;62667;48.698;8.762;2023-08-07T12:15:17;96189.00;;;15.00
10869;BMP180;62667;48.698;8.762;2023-08-07T12:17:44;96192.00;;;14.90
10869;BMP180;62667;48.698;8.762;2023-08-07T12:20:15;96205.00;;;14.90
10869;BMP180;62667;48.698;8.762;2023-08-07T12:22:44;96194.00;;;14.70
10869;BMP180;62667;48.698;8.762;2023-08-07T12:25:12;96197.00;;;14.70
10869;BMP180;62667;48.698;8.762;2023-08-07T12:27:39;96202.00;;;14.70
10869;BMP180;62667;48.698;8.762;2023-08-07T12:30:07;96205.00;;;14.60
10869;BMP180;62667;48.698;8.762;2023-08-07T12:32:35;96202.00;;;14.50
10869;BMP180;62667;48.698;8.762;2023-08-07T12:35:03;96198.00;;;15.00
10869;BMP180;62667;48.698;8.762;2023-08-07T12:37:34;96190.00;;;15.30
10869;BMP180;62667;48.698;8.762;2023-08-07T12:40:03;96187.00;;;15.30
10869;BMP180;62667;48.698;8.762;2023-08-07T12:42:32;96184.00;;;15.40
10869;BMP180;62667;48.698;8.762;2023-08-07T12:44:59;96184.00;;;15.90
10869;BMP180;62667;48.698;8.762;2023-08-07T12:47:26;96181.00;;;16.10
10869;BMP180;62667;48.698;8.762;2023-08-07T12:49:54;96190.00;;;16.90
10869;BMP180;62667;48.698;8.762;2023-08-07T12:52:21;96199.00;;;16.80
10869;BMP180;62667;48.698;8.762;2023-08-07T12:54:49;96199.00;;;16.30
10869;BMP180;62667;48.698;8.762;2023-08-07T12:57:17;96214.00;;;15.80
10869;BMP180;62667;48.698;8.762;2023-08-07T12:59:45;96202.00;;;15.70
10869;BMP180;62667;48.698;8.762;2023-08-07T13:02:12;96232.00;;;15.40
10869;BMP180;62667;48.698;8.762;2023-08-07T13:04:40;96219.00;;;15.20
10869;BMP180;62667;48.698;8.762;2023-08-07T13:07:07;96215.00;;;15.00
10869;BMP180;62667;48.698;8.762;2023-08-07T13:09:35;96211.00;;;15.20
10869;BMP180;62667;48.698;8.762;2023-08-07T13:12:02;96184.00;;;15.30
10869;BMP180;62667;48.698;8.762;2023-08-07T13:14:31;96163.00;;;15.30
10869;BMP180;62667;48.698;8.762;2023-08-07T13:16:59;96206.00;;;15.90
10869;BMP180;62667;48.698;8.762;2023-08-07T13:19:26;96183.00;;;15.80
10869;BMP180;62667;48.698;8.762;2023-08-07T13:21:53;96196.00;;;16.70
10869;BMP180;62667;48.698;8.762;2023-08-07T13:24:21;96193.00;;;16.80
10869;BMP180;62667;48.698;8.762;2023-08-07T13:26:48;96166.00;;;16.70
10869;BMP180;62667;48.698;8.762;2023-08-07T13:29:15;96192.00;;;16.90
10869;BMP180;62667;48.698;8.762;2023-08-07T13:31:44;96180.00;;;17.10
10869;BMP180;62667;48.698;8.762;2023-08-07T13:34:12;96190.00;;;17.50
10869;BMP180;62667;48.698;8.762;2023-08-07T13:36:40;96190.00;;;16.70
10869;BMP180;62667;48.698;8.762;2023-08-07T13:39:07;96186.00;;;16.60
10869;BMP180;62667;48.698;8.762;2023-08-07T13:41:35;96193.00;;;17.20
10869;BMP180;62667;48.698;8.762;2023-08-07T13:44:03;96218.00;;;17.00
10869;BMP180;62667;48.698;8.762;2023-08-07T13:46:30;96205.00;;;16.60
10869;BMP180;62667;48.698;8.762;2023-08-07T13:48:59;96220.00;;;16.50
10869;BMP180;62667;48.698;8.762;2023-08-07T13:51:27;96213.00;;;16.60
10869;BMP180;62667;48.698;8.762;2023-08-07T13:53:54;96182.00;;;16.90
10869;BMP180;62667;48.698;8.762;2023-08-07T13:56:21;96201.00;;;17.80
10869;BMP180;62667;48.698;8.762;2023-08-07T13:58:49;96209.00;;;17.10
10869;BMP180;62667;48.698;8.762;2023-08-07T14:01:16;96203.00;;;16.90
10869;BMP180;62667;48.698;8.762;2023-08-07T14:03:44;96200.00;;;16.60
10869;BMP180;62667;48.698;8.762;2023-08-07T14:06:13;96189.00;;;17.00
10869;BMP180;62667;48.698;8.762;2023-08-07T14:08:41;96200.00;;;17.70
10869;BMP180;62667;48.698;8.762;2023-08-07T14:11:08;96235.00;;;17.30
10869;BMP180;62667;48.698;8.762;2023-08-07T14:13:36;96248.00;;;16.50
10869;BMP180;62667;48.698;8.762;2023-08-07T14:16:03;96244.00;;;16.30